sensor_id;sensor_type;location;lat;lon;timestamp;pressure;altitude;pressure_sealevel;temperature;humidity
79242;BME280;68670;48.720;9.118;2023-05-10T00:01:17;96230.50;;;12.71;88.38
79242;BME280;68670;48.720;9.118;2023-05-10T00:03:42;96239.84;;;12.70;89.55
79242;BME280;68670;48.720;9.118;2023-05-10T00:06:07;96241.22;;;12.68;87.58
79242;BME280;68670;48.720;9.118;2023-05-10T00:08:35;96240.94;;;12.69;87.56
79242;BME280;68670;48.720;9.118;2023-05-10T00:11:00;96249.75;;;12.66;87.18
79242;BME280;68670;48.720;9.118;2023-05-10T00:13:28;96255.25;;;12.61;87.20
79242;BME280;68670;48.720;9.118;2023-05-10T00:15:53;96246.69;;;12.48;86.88
79242;BME280;68670;48.720;9.118;2023-05-10T00:18:24;96243.63;;;12.34;85.89
79242;BME280;68670;48.720;9.118;2023-05-10T00:20:49;96236.19;;;12.24;86.47
79242;BME280;68670;48.720;9.118;2023-05-10T00:23:14;96245.44;;;12.08;86.41
79242;BME280;68670;48.720;9.118;2023-05-10T00:25:42;96244.88;;;12.06;85.98
79242;BME280;68670;48.720;9.118;2023-05-10T00:28:09;96248.19;;;12.08;86.16
79242;BME280;68670;48.720;9.118;2023-05-10T00:30:37;96242.38;;;11.94;86.38
79242;BME280;68670;48.720;9.118;2023-05-10T00:33:02;96242.38;;;11.94;87.51
79242;BME280;68670;48.720;9.118;2023-05-10T00:35:28;96240.72;;;11.88;86.66
79242;BME280;68670;48.720;9.118;2023-05-10T00:37:56;96234.66;;;11.86;86.98
79242;BME280;68670;48.720;9.118;2023-05-10T00:40:21;96241.81;;;11.87;86.48
79242;BME280;68670;48.720;9.118;2023-05-10T00:42:47;96244.50;;;11.82;86.24
79242;BME280;68670;48.720;9.118;2023-05-10T00:45:15;96250.28;;;11.86;85.44
79242;BME280;68670;48.720;9.118;2023-05-10T00:47:41;96249.25;;;11.92;85.45
79242;BME280;68670;48.720;9.118;2023-05-10T00:50:06;96258.25;;;11.87;85.66
79242;BME280;68670;48.720;9.118;2023-05-10T00:52:34;96253.31;;;11.84;86.01
79242;BME280;68670;48.720;9.118;2023-05-10T00:55:03;96256.84;;;11.80;86.01
79242;BME280;68670;48.720;9.118;2023-05-10T00:57:29;96254.41;;;11.83;85.59
79242;BME280;68670;48.720;9.118;2023-05-10T00:59:54;96253.53;;;11.77;86.31
79242;BME280;68670;48.720;9.118;2023-05-10T01:02:19;96260.34;;;11.75;86.16
79242;BME280;68670;48.720;9.118;2023-05-10T01:04:48;96265.38;;;11.83;85.90
79242;BME280;68670;48.720;9.118;2023-05-10T01:07:16;96263.16;;;11.80;85.44
79242;BME280;68670;48.720;9.118;2023-05-10T01:13:03;96267.56;;;11.81;86.08
79242;BME280;68670;48.720;9.118;2023-05-10T01:15:29;96266.94;;;11.69;86.85
79242;BME280;68670;48.720;9.118;2023-05-10T01:17:56;96270.19;;;11.71;86.48
79242;BME280;68670;48.720;9.118;2023-05-10T01:20:21;96264.72;;;11.71;86.31
79242;BME280;68670;48.720;9.118;2023-05-10T01:25:48;96274.66;;;11.77;85.83
79242;BME280;68670;48.720;9.118;2023-05-10T01:28:44;96281.88;;;11.88;85.32
79242;BME280;68670;48.720;9.118;2023-05-10T01:34:42;96286.13;;;11.74;86.49
79242;BME280;68670;48.720;9.118;2023-05-10T01:37:20;96292.16;;;11.71;86.29
79242;BME280;68670;48.720;9.118;2023-05-10T01:40:02;96292.16;;;11.71;86.15
79242;BME280;68670;48.720;9.118;2023-05-10T01:42:38;96287.28;;;11.78;85.52
79242;BME280;68670;48.720;9.118;2023-05-10T01:45:07;96295.47;;;11.73;86.35
79242;BME280;68670;48.720;9.118;2023-05-10T01:47:42;96293.81;;;11.72;86.14
79242;BME280;68670;48.720;9.118;2023-05-10T01:50:18;96297.09;;;11.74;86.45
79242;BME280;68670;48.720;9.118;2023-05-10T01:52:47;96300.69;;;11.74;86.24
79242;BME280;68670;48.720;9.118;2023-05-10T01:55:20;96300.94;;;11.73;86.08
79242;BME280;68670;48.720;9.118;2023-05-10T01:57:51;96294.34;;;11.69;86.21
79242;BME280;68670;48.720;9.118;2023-05-10T02:00:22;96299.53;;;11.65;86.50
79242;BME280;68670;48.720;9.118;2023-05-10T02:02:49;96304.78;;;11.67;86.38
79242;BME280;68670;48.720;9.118;2023-05-10T02:05:16;96303.69;;;11.68;86.66
79242;BME280;68670;48.720;9.118;2023-05-10T02:07:45;96298.97;;;11.63;87.28
79242;BME280;68670;48.720;9.118;2023-05-10T02:10:11;96300.94;;;11.68;86.76
79242;BME280;68670;48.720;9.118;2023-05-10T02:12:46;96299.25;;;11.62;87.19
79242;BME280;68670;48.720;9.118;2023-05-10T02:15:15;96307.47;;;11.62;86.72
79242;BME280;68670;48.720;9.118;2023-05-10T02:17:43;96300.28;;;11.56;87.38
79242;BME280;68670;48.720;9.118;2023-05-10T02:20:10;96309.09;;;11.58;87.24
79242;BME280;68670;48.720;9.118;2023-05-10T02:22:39;96309.91;;;11.58;86.96
79242;BME280;68670;48.720;9.118;2023-05-10T02:25:08;96316.78;;;11.61;86.42
79242;BME280;68670;48.720;9.118;2023-05-10T02:27:37;96321.19;;;11.62;86.30
79242;BME280;68670;48.720;9.118;2023-05-10T02:30:05;96320.06;;;11.58;86.86
79242;BME280;68670;48.720;9.118;2023-05-10T02:32:31;96324.75;;;11.62;86.54
79242;BME280;68670;48.720;9.118;2023-05-10T02:35:00;96317.34;;;11.63;86.39
79242;BME280;68670;48.720;9.118;2023-05-10T02:37:27;96328.59;;;11.61;86.40
79242;BME280;68670;48.720;9.118;2023-05-10T02:39:56;96327.72;;;11.56;86.84
79242;BME280;68670;48.720;9.118;2023-05-10T02:42:25;96326.91;;;11.55;86.88
79242;BME280;68670;48.720;9.118;2023-05-10T02:44:59;96336.56;;;11.63;86.23
79242;BME280;68670;48.720;9.118;2023-05-10T02:47:28;96329.47;;;11.67;85.48
79242;BME280;68670;48.720;9.118;2023-05-10T02:49:54;96339.59;;;11.66;85.80
79242;BME280;68670;48.720;9.118;2023-05-10T02:52:24;96331.59;;;11.60;86.27
79242;BME280;68670;48.720;9.118;2023-05-10T02:54:55;96331.03;;;11.58;85.74
79242;BME280;68670;48.720;9.118;2023-05-10T02:57:26;96327.47;;;11.57;85.62
79242;BME280;68670;48.720;9.118;2023-05-10T02:59:52;96327.72;;;11.56;86.16
79242;BME280;68670;48.720;9.118;2023-05-10T03:02:18;96325.81;;;11.56;86.18
79242;BME280;68670;48.720;9.118;2023-05-10T03:04:45;96322.22;;;11.56;86.23
79242;BME280;68670;48.720;9.118;2023-05-10T03:07:13;96323.88;;;11.57;86.19
79242;BME280;68670;48.720;9.118;2023-05-10T03:09:38;96331.34;;;11.61;86.02
79242;BME280;68670;48.720;9.118;2023-05-10T03:12:27;96334.81;;;11.52;86.72
79242;BME280;68670;48.720;9.118;2023-05-10T03:15:19;96346.34;;;11.54;86.56
79242;BME280;68670;48.720;9.118;2023-05-10T03:17:55;96343.09;;;11.57;86.46
79242;BME280;68670;48.720;9.118;2023-05-10T03:20:48;96346.66;;;11.57;86.44
79242;BME280;68670;48.720;9.118;2023-05-10T03:23:22;96349.13;;;11.59;86.20
79242;BME280;68670;48.720;9.118;2023-05-10T03:25:55;96342.53;;;11.55;86.21
79242;BME280;68670;48.720;9.118;2023-05-10T03:28:24;96345.00;;;11.56;86.77
79242;BME280;68670;48.720;9.118;2023-05-10T03:30:53;96342.53;;;11.55;86.80
79242;BME280;68670;48.720;9.118;2023-05-10T03:33:19;96344.75;;;11.58;86.50
79242;BME280;68670;48.720;9.118;2023-05-10T03:35:44;96351.31;;;11.57;86.68
79242;BME280;68670;48.720;9.118;2023-05-10T03:38:13;96355.72;;;11.58;86.52
79242;BME280;68670;48.720;9.118;2023-05-10T03:40:41;96349.66;;;11.56;86.36
79242;BME280;68670;48.720;9.118;2023-05-10T03:43:06;96344.69;;;11.53;86.86
79242;BME280;68670;48.720;9.118;2023-05-10T03:45:31;96355.97;;;11.56;86.69
79242;BME280;68670;48.720;9.118;2023-05-10T03:47:57;96353.50;;;11.55;86.72
79242;BME280;68670;48.720;9.118;2023-05-10T03:50:23;96361.47;;;11.56;87.14
79242;BME280;68670;48.720;9.118;2023-05-10T03:52:48;96367.81;;;11.62;86.43
79242;BME280;68670;48.720;9.118;2023-05-10T03:55:16;96366.94;;;11.56;86.69
79242;BME280;68670;48.720;9.118;2023-05-10T03:57:42;96368.59;;;11.57;87.09
79242;BME280;68670;48.720;9.118;2023-05-10T04:00:10;96369.44;;;11.58;86.08
79242;BME280;68670;48.720;9.118;2023-05-10T04:02:38;96373.78;;;11.54;87.54
79242;BME280;68670;48.720;9.118;2023-05-10T04:05:03;96372.66;;;11.50;87.82
79242;BME280;68670;48.720;9.118;2023-05-10T04:07:31;96360.84;;;11.49;87.70
79242;BME280;68670;48.720;9.118;2023-05-10T04:09:59;96368.78;;;11.45;87.55
79242;BME280;68670;48.720;9.118;2023-05-10T04:12:26;96366.28;;;11.44;87.35
79242;BME280;68670;48.720;9.118;2023-05-10T04:14:54;96364.38;;;11.44;86.87
79242;BME280;68670;48.720;9.118;2023-05-10T04:17:19;96364.88;;;11.41;87.43
79242;BME280;68670;48.720;9.118;2023-05-10T04:19:47;96363.91;;;11.53;86.15
79242;BME280;68670;48.720;9.118;2023-05-10T04:22:12;96366.69;;;11.58;86.17
79242;BME280;68670;48.720;9.118;2023-05-10T04:24:39;96369.34;;;11.48;86.30
79242;BME280;68670;48.720;9.118;2023-05-10T04:27:10;96372.06;;;11.48;86.68
79242;BME280;68670;48.720;9.118;2023-05-10T04:29:37;96368.56;;;11.52;86.30
79242;BME280;68670;48.720;9.118;2023-05-10T04:32:03;96380.09;;;11.54;86.26
79242;BME280;68670;48.720;9.118;2023-05-10T04:34:28;96371.03;;;11.54;85.98
79242;BME280;68670;48.720;9.118;2023-05-10T04:37:01;96373.31;;;11.62;85.27
79242;BME280;68670;48.720;9.118;2023-05-10T04:39:26;96377.66;;;11.58;86.34
79242;BME280;68670;48.720;9.118;2023-05-10T04:41:51;96382.06;;;11.59;86.23
79242;BME280;68670;48.720;9.118;2023-05-10T04:44:17;96383.09;;;11.53;86.14
79242;BME280;68670;48.720;9.118;2023-05-10T04:46:42;96383.72;;;11.60;85.84
79242;BME280;68670;48.720;9.118;2023-05-10T04:49:11;96379.25;;;11.54;86.46
79242;BME280;68670;48.720;9.118;2023-05-10T04:51:37;96373.25;;;11.57;86.79
79242;BME280;68670;48.720;9.118;2023-05-10T04:54:05;96383.13;;;11.58;86.56
79242;BME280;68670;48.720;9.118;2023-05-10T04:56:32;96390.53;;;11.57;86.88
79242;BME280;68670;48.720;9.118;2023-05-10T04:58:58;96383.41;;;11.56;86.29
79242;BME280;68670;48.720;9.118;2023-05-10T05:01:26;96387.50;;;11.54;87.07
79242;BME280;68670;48.720;9.118;2023-05-10T05:03:57;96390.53;;;11.57;86.14
79242;BME280;68670;48.720;9.118;2023-05-10T05:06:22;96385.38;;;11.61;86.57
79242;BME280;68670;48.720;9.118;2023-05-10T05:08:49;96386.44;;;11.60;86.59
79242;BME280;68670;48.720;9.118;2023-05-10T05:11:17;96389.81;;;11.67;86.96
79242;BME280;68670;48.720;9.118;2023-05-10T05:13:46;96387.63;;;11.69;86.14
79242;BME280;68670;48.720;9.118;2023-05-10T05:16:11;96384.91;;;11.74;85.82
79242;BME280;68670;48.720;9.118;2023-05-10T05:18:36;96389.81;;;11.67;87.14
79242;BME280;68670;48.720;9.118;2023-05-10T05:21:16;96398.06;;;11.72;87.07
79242;BME280;68670;48.720;9.118;2023-05-10T05:23:42;96392.88;;;11.75;87.33
79242;BME280;68670;48.720;9.118;2023-05-10T05:26:10;96400.53;;;11.73;86.71
79242;BME280;68670;48.720;9.118;2023-05-10T05:28:40;96395.94;;;11.79;86.15
79242;BME280;68670;48.720;9.118;2023-05-10T05:31:08;96394.84;;;11.80;86.65
79242;BME280;68670;48.720;9.118;2023-05-10T05:33:34;96401.19;;;11.81;87.18
79242;BME280;68670;48.720;9.118;2023-05-10T05:36:03;96403.66;;;11.82;86.73
79242;BME280;68670;48.720;9.118;2023-05-10T05:38:31;96409.75;;;11.89;86.22
79242;BME280;68670;48.720;9.118;2023-05-10T05:40:57;96410.59;;;11.90;86.27
79242;BME280;68670;48.720;9.118;2023-05-10T05:43:22;96415.53;;;11.93;85.89
79242;BME280;68670;48.720;9.118;2023-05-10T05:45:51;96409.22;;;11.92;86.19
79242;BME280;68670;48.720;9.118;2023-05-10T05:48:19;96418.56;;;11.91;86.01
79242;BME280;68670;48.720;9.118;2023-05-10T05:50:46;96423.53;;;11.94;86.05
79242;BME280;68670;48.720;9.118;2023-05-10T05:53:14;96428.47;;;11.97;85.85
79242;BME280;68670;48.720;9.118;2023-05-10T05:55:50;96422.75;;;12.04;84.85
79242;BME280;68670;48.720;9.118;2023-05-10T05:58:16;96413.16;;;12.01;86.65
79242;BME280;68670;48.720;9.118;2023-05-10T06:00:41;96427.13;;;12.05;85.46
79242;BME280;68670;48.720;9.118;2023-05-10T06:03:11;96418.69;;;12.11;85.33
79242;BME280;68670;48.720;9.118;2023-05-10T06:05:37;96426.38;;;12.15;85.79
79242;BME280;68670;48.720;9.118;2023-05-10T06:08:02;96429.19;;;12.20;85.37
79242;BME280;68670;48.720;9.118;2023-05-10T06:10:28;96433.31;;;12.22;84.84
79242;BME280;68670;48.720;9.118;2023-05-10T06:12:53;96427.03;;;12.27;84.62
79242;BME280;68670;48.720;9.118;2023-05-10T06:15:21;96434.19;;;12.28;85.24
79242;BME280;68670;48.720;9.118;2023-05-10T06:17:46;96446.28;;;12.32;84.78
79242;BME280;68670;48.720;9.118;2023-05-10T06:20:14;96446.28;;;12.37;83.04
79242;BME280;68670;48.720;9.118;2023-05-10T06:22:39;96447.38;;;12.36;83.77
79242;BME280;68670;48.720;9.118;2023-05-10T06:25:08;96444.38;;;12.37;83.32
79242;BME280;68670;48.720;9.118;2023-05-10T06:27:33;96444.09;;;12.34;84.04
79242;BME280;68670;48.720;9.118;2023-05-10T06:30:01;96446.84;;;12.39;84.52
79242;BME280;68670;48.720;9.118;2023-05-10T06:32:30;96452.34;;;12.39;83.46
79242;BME280;68670;48.720;9.118;2023-05-10T06:34:57;96453.47;;;12.43;83.52
79242;BME280;68670;48.720;9.118;2023-05-10T06:37:22;96457.88;;;12.44;83.79
79242;BME280;68670;48.720;9.118;2023-05-10T06:39:50;96458.97;;;12.43;82.61
79242;BME280;68670;48.720;9.118;2023-05-10T06:42:15;96451.59;;;12.49;82.84
79242;BME280;68670;48.720;9.118;2023-05-10T06:44:45;96465.03;;;12.45;83.41
79242;BME280;68670;48.720;9.118;2023-05-10T06:47:13;96462.28;;;12.45;84.85
79242;BME280;68670;48.720;9.118;2023-05-10T06:49:38;96461.75;;;12.48;83.94
79242;BME280;68670;48.720;9.118;2023-05-10T06:52:06;96466.13;;;12.44;83.80
79242;BME280;68670;48.720;9.118;2023-05-10T06:54:33;96462.28;;;12.45;86.09
79242;BME280;68670;48.720;9.118;2023-05-10T06:56:59;96464.47;;;12.43;86.59
79242;BME280;68670;48.720;9.118;2023-05-10T06:59:24;96460.91;;;12.48;85.42
79242;BME280;68670;48.720;9.118;2023-05-10T07:01:50;96464.53;;;12.53;85.44
79242;BME280;68670;48.720;9.118;2023-05-10T07:04:17;96461.53;;;12.55;86.71
79242;BME280;68670;48.720;9.118;2023-05-10T07:06:43;96455.78;;;12.61;83.76
79242;BME280;68670;48.720;9.118;2023-05-10T07:09:08;96458.53;;;12.61;84.07
79242;BME280;68670;48.720;9.118;2023-05-10T07:11:34;96461.63;;;12.75;83.34
79242;BME280;68670;48.720;9.118;2023-05-10T07:13:59;96461.38;;;12.82;81.77
79242;BME280;68670;48.720;9.118;2023-05-10T07:16:27;96463.88;;;12.83;84.10
79242;BME280;68670;48.720;9.118;2023-05-10T07:18:52;96464.75;;;12.94;84.96
79242;BME280;68670;48.720;9.118;2023-05-10T07:21:18;96466.69;;;13.03;82.34
79242;BME280;68670;48.720;9.118;2023-05-10T07:23:48;96465.91;;;13.13;83.35
79242;BME280;68670;48.720;9.118;2023-05-10T07:26:14;96464.31;;;13.17;81.38
79242;BME280;68670;48.720;9.118;2023-05-10T07:28:42;96459.91;;;13.21;80.59
79242;BME280;68670;48.720;9.118;2023-05-10T07:31:10;96468.16;;;13.21;80.78
79242;BME280;68670;48.720;9.118;2023-05-10T07:33:38;96462.41;;;13.23;80.11
79242;BME280;68670;48.720;9.118;2023-05-10T07:36:03;96465.72;;;13.25;79.29
79242;BME280;68670;48.720;9.118;2023-05-10T07:38:28;96473.69;;;13.26;81.36
79242;BME280;68670;48.720;9.118;2023-05-10T07:40:54;96479.19;;;13.26;79.26
79242;BME280;68670;48.720;9.118;2023-05-10T07:43:19;96475.34;;;13.27;78.34
79242;BME280;68670;48.720;9.118;2023-05-10T07:45:44;96477.53;;;13.25;79.50
79242;BME280;68670;48.720;9.118;2023-05-10T07:48:10;96483.03;;;13.25;78.63
79242;BME280;68670;48.720;9.118;2023-05-10T07:50:35;96481.94;;;13.26;79.57
79242;BME280;68670;48.720;9.118;2023-05-10T07:53:03;96489.09;;;13.32;79.78
79242;BME280;68670;48.720;9.118;2023-05-10T07:55:28;96484.41;;;13.33;77.65
79242;BME280;68670;48.720;9.118;2023-05-10T07:57:53;96478.59;;;13.19;77.65
79242;BME280;68670;48.720;9.118;2023-05-10T08:00:19;96484.69;;;13.26;78.00
79242;BME280;68670;48.720;9.118;2023-05-10T08:02:45;96487.91;;;13.13;77.70
79242;BME280;68670;48.720;9.118;2023-05-10T08:05:11;96485.47;;;13.17;78.54
79242;BME280;68670;48.720;9.118;2023-05-10T08:07:36;96481.97;;;13.31;77.29
79242;BME280;68670;48.720;9.118;2023-05-10T08:10:02;96496.25;;;13.33;77.72
79242;BME280;68670;48.720;9.118;2023-05-10T08:12:28;96483.63;;;13.42;76.13
79242;BME280;68670;48.720;9.118;2023-05-10T08:14:53;96492.41;;;13.34;75.66
79242;BME280;68670;48.720;9.118;2023-05-10T08:17:20;96488.03;;;13.43;75.46
79242;BME280;68670;48.720;9.118;2023-05-10T08:19:46;96491.28;;;13.35;74.91
79242;BME280;68670;48.720;9.118;2023-05-10T08:22:11;96489.66;;;13.39;74.82
79242;BME280;68670;48.720;9.118;2023-05-10T08:24:37;96491.31;;;13.40;74.87
79242;BME280;68670;48.720;9.118;2023-05-10T08:27:05;96499.00;;;13.38;74.78
79242;BME280;68670;48.720;9.118;2023-05-10T08:29:30;96495.75;;;13.47;76.63
79242;BME280;68670;48.720;9.118;2023-05-10T08:31:58;96494.66;;;13.53;75.91
79242;BME280;68670;48.720;9.118;2023-05-10T08:34:23;96491.91;;;13.53;76.49
79242;BME280;68670;48.720;9.118;2023-05-10T08:36:49;96497.97;;;13.55;78.79
79242;BME280;68670;48.720;9.118;2023-05-10T08:39:14;96499.91;;;13.59;78.21
79242;BME280;68670;48.720;9.118;2023-05-10T08:41:39;96505.69;;;13.73;77.71
79242;BME280;68670;48.720;9.118;2023-05-10T08:44:11;96496.34;;;13.74;76.74
79242;BME280;68670;48.720;9.118;2023-05-10T08:46:37;96496.63;;;13.83;74.81
79242;BME280;68670;48.720;9.118;2023-05-10T08:49:10;96499.69;;;13.86;73.78
79242;BME280;68670;48.720;9.118;2023-05-10T08:51:40;96499.13;;;13.84;74.92
79242;BME280;68670;48.720;9.118;2023-05-10T08:54:11;96504.38;;;13.91;73.89
79242;BME280;68670;48.720;9.118;2023-05-10T08:56:37;96500.50;;;14.02;71.96
79242;BME280;68670;48.720;9.118;2023-05-10T08:59:05;96505.19;;;14.11;72.51
79242;BME280;68670;48.720;9.118;2023-05-10T09:01:31;96511.81;;;14.21;71.75
79242;BME280;68670;48.720;9.118;2023-05-10T09:03:58;96512.91;;;14.09;71.68
79242;BME280;68670;48.720;9.118;2023-05-10T09:06:26;96515.66;;;14.30;73.15
79242;BME280;68670;48.720;9.118;2023-05-10T09:08:52;96520.59;;;14.33;70.69
79242;BME280;68670;48.720;9.118;2023-05-10T09:11:17;96514.56;;;14.16;70.73
79242;BME280;68670;48.720;9.118;2023-05-10T09:13:43;96523.66;;;14.11;69.87
79242;BME280;68670;48.720;9.118;2023-05-10T09:16:11;96521.16;;;14.04;68.65
79242;BME280;68670;48.720;9.118;2023-05-10T09:18:39;96525.25;;;13.82;69.47
79242;BME280;68670;48.720;9.118;2023-05-10T09:21:04;96532.13;;;13.79;70.12
79242;BME280;68670;48.720;9.118;2023-05-10T09:23:32;96529.38;;;13.64;70.01
79242;BME280;68670;48.720;9.118;2023-05-10T09:26:07;96536.50;;;13.65;70.40
79242;BME280;68670;48.720;9.118;2023-05-10T09:28:55;96536.50;;;13.65;70.02
79242;BME280;68670;48.720;9.118;2023-05-10T09:31:21;96529.66;;;13.72;68.42
79242;BME280;68670;48.720;9.118;2023-05-10T09:33:48;96524.41;;;13.66;69.44
79242;BME280;68670;48.720;9.118;2023-05-10T09:36:16;96529.94;;;13.76;68.74
79242;BME280;68670;48.720;9.118;2023-05-10T09:38:51;96532.16;;;13.89;67.78
79242;BME280;68670;48.720;9.118;2023-05-10T09:41:21;96534.94;;;13.94;68.36
79242;BME280;68670;48.720;9.118;2023-05-10T09:43:46;96535.47;;;13.91;65.80
79242;BME280;68670;48.720;9.118;2023-05-10T09:46:12;96533.28;;;14.03;67.46
79242;BME280;68670;48.720;9.118;2023-05-10T09:48:46;96533.03;;;14.20;67.01
79242;BME280;68670;48.720;9.118;2023-05-10T09:51:22;96539.88;;;14.33;66.26
79242;BME280;68670;48.720;9.118;2023-05-10T09:53:48;96523.66;;;14.41;66.98
79242;BME280;68670;48.720;9.118;2023-05-10T09:56:33;96530.28;;;14.61;66.11
79242;BME280;68670;48.720;9.118;2023-05-10T09:59:03;96533.00;;;14.66;64.62
79242;BME280;68670;48.720;9.118;2023-05-10T10:01:29;96531.81;;;15.07;65.31
79242;BME280;68670;48.720;9.118;2023-05-10T10:03:55;96521.84;;;15.22;63.46
79242;BME280;68670;48.720;9.118;2023-05-10T10:06:23;96538.06;;;15.38;61.17
79242;BME280;68670;48.720;9.118;2023-05-10T10:08:48;96516.50;;;15.45;60.84
79242;BME280;68670;48.720;9.118;2023-05-10T10:11:17;96524.22;;;15.49;61.66
79242;BME280;68670;48.720;9.118;2023-05-10T10:13:42;96527.53;;;15.45;61.10
79242;BME280;68670;48.720;9.118;2023-05-10T10:16:08;96527.59;;;15.30;61.07
79242;BME280;68670;48.720;9.118;2023-05-10T10:18:36;96527.56;;;15.35;61.85
79242;BME280;68670;48.720;9.118;2023-05-10T10:21:06;96520.66;;;15.38;60.88
79242;BME280;68670;48.720;9.118;2023-05-10T10:23:34;96518.16;;;15.46;59.07
79242;BME280;68670;48.720;9.118;2023-05-10T10:26:00;96521.16;;;15.55;60.58
79242;BME280;68670;48.720;9.118;2023-05-10T10:28:57;96524.13;;;15.69;60.45
79242;BME280;68670;48.720;9.118;2023-05-10T10:31:26;96526.38;;;15.62;58.07
79242;BME280;68670;48.720;9.118;2023-05-10T10:34:04;96524.50;;;15.57;58.42
79242;BME280;68670;48.720;9.118;2023-05-10T10:36:53;96521.91;;;15.71;57.46
79242;BME280;68670;48.720;9.118;2023-05-10T10:39:20;96519.78;;;16.02;58.17
79242;BME280;68670;48.720;9.118;2023-05-10T10:41:51;96521.03;;;16.20;57.44
79242;BME280;68670;48.720;9.118;2023-05-10T10:49:42;96524.16;;;16.08;56.92
79242;BME280;68670;48.720;9.118;2023-05-10T10:57:27;96548.16;;;14.73;59.42
79242;BME280;68670;48.720;9.118;2023-05-10T11:07:54;96549.00;;;14.18;58.30
79242;BME280;68670;48.720;9.118;2023-05-10T11:10:24;96547.59;;;14.10;56.45
79242;BME280;68670;48.720;9.118;2023-05-10T11:15:19;96561.00;;;13.61;59.56
79242;BME280;68670;48.720;9.118;2023-05-10T11:17:45;96564.00;;;13.65;59.39
79242;BME280;68670;48.720;9.118;2023-05-10T11:20:17;96559.88;;;13.52;62.05
79242;BME280;68670;48.720;9.118;2023-05-10T11:22:52;96562.06;;;13.50;59.12
79242;BME280;68670;48.720;9.118;2023-05-10T11:25:18;96570.53;;;13.38;59.60
79242;BME280;68670;48.720;9.118;2023-05-10T11:27:44;96561.22;;;13.50;60.54
79242;BME280;68670;48.720;9.118;2023-05-10T11:30:12;96560.66;;;13.42;60.96
79242;BME280;68670;48.720;9.118;2023-05-10T11:32:39;96561.84;;;13.62;61.66
79242;BME280;68670;48.720;9.118;2023-05-10T11:35:10;96560.47;;;13.69;61.03
79242;BME280;68670;48.720;9.118;2023-05-10T11:37:41;96558.56;;;13.75;60.84
79242;BME280;68670;48.720;9.118;2023-05-10T11:40:09;96570.63;;;13.69;61.23
79242;BME280;68670;48.720;9.118;2023-05-10T11:42:37;96564.53;;;13.52;62.00
79242;BME280;68670;48.720;9.118;2023-05-10T11:45:05;96576.13;;;13.59;61.91
79242;BME280;68670;48.720;9.118;2023-05-10T11:47:31;96573.34;;;13.54;61.91
79242;BME280;68670;48.720;9.118;2023-05-10T11:50:00;96577.81;;;13.70;61.65
79242;BME280;68670;48.720;9.118;2023-05-10T11:52:26;96580.56;;;13.75;61.85
79242;BME280;68670;48.720;9.118;2023-05-10T11:54:52;96581.72;;;13.84;62.55
79242;BME280;68670;48.720;9.118;2023-05-10T11:57:26;96592.25;;;14.23;62.01
79242;BME280;68670;48.720;9.118;2023-05-10T11:59:56;96588.44;;;14.54;60.85
79242;BME280;68670;48.720;9.118;2023-05-10T12:02:21;96587.03;;;14.87;60.76
79242;BME280;68670;48.720;9.118;2023-05-10T12:04:47;96579.50;;;15.23;60.56
79242;BME280;68670;48.720;9.118;2023-05-10T12:07:12;96573.34;;;15.46;59.23
79242;BME280;68670;48.720;9.118;2023-05-10T12:10:01;96580.97;;;15.75;57.27
79242;BME280;68670;48.720;9.118;2023-05-10T12:12:27;96577.13;;;15.71;57.17
79242;BME280;68670;48.720;9.118;2023-05-10T12:14:52;96579.94;;;15.61;57.00
79242;BME280;68670;48.720;9.118;2023-05-10T12:17:17;96584.31;;;15.67;58.32
79242;BME280;68670;48.720;9.118;2023-05-10T12:19:42;96592.13;;;15.44;56.94
79242;BME280;68670;48.720;9.118;2023-05-10T12:22:08;96580.63;;;15.22;57.77
79242;BME280;68670;48.720;9.118;2023-05-10T12:24:35;96577.88;;;15.12;58.64
79242;BME280;68670;48.720;9.118;2023-05-10T12:27:04;96586.69;;;15.24;58.37
79242;BME280;68670;48.720;9.118;2023-05-10T12:29:30;96574.00;;;15.13;58.63
79242;BME280;68670;48.720;9.118;2023-05-10T12:31:58;96580.09;;;14.95;59.94
79242;BME280;68670;48.720;9.118;2023-05-10T12:34:36;96590.06;;;14.75;59.58
79242;BME280;68670;48.720;9.118;2023-05-10T12:37:03;96586.47;;;14.70;57.93
79242;BME280;68670;48.720;9.118;2023-05-10T12:39:43;96589.00;;;14.51;60.81
79242;BME280;68670;48.720;9.118;2023-05-10T12:42:11;96587.34;;;14.50;61.92
79242;BME280;68670;48.720;9.118;2023-05-10T12:44:41;96588.94;;;14.36;62.15
79242;BME280;68670;48.720;9.118;2023-05-10T12:47:06;96596.94;;;14.37;62.69
79242;BME280;68670;48.720;9.118;2023-05-10T12:49:31;96598.28;;;14.30;62.91
79242;BME280;68670;48.720;9.118;2023-05-10T12:51:59;96594.44;;;14.21;63.44
79242;BME280;68670;48.720;9.118;2023-05-10T12:54:24;96595.00;;;14.28;63.99
79242;BME280;68670;48.720;9.118;2023-05-10T12:56:51;96596.91;;;14.32;65.94
79242;BME280;68670;48.720;9.118;2023-05-10T12:59:17;96599.69;;;14.37;64.21
79242;BME280;68670;48.720;9.118;2023-05-10T13:01:42;96587.59;;;14.49;61.08
79242;BME280;68670;48.720;9.118;2023-05-10T13:04:10;96593.09;;;14.64;61.07
79242;BME280;68670;48.720;9.118;2023-05-10T13:06:35;96595.31;;;14.87;59.98
79242;BME280;68670;48.720;9.118;2023-05-10T13:09:01;96590.91;;;14.76;58.88
79242;BME280;68670;48.720;9.118;2023-05-10T13:11:26;96583.41;;;15.02;63.53
79242;BME280;68670;48.720;9.118;2023-05-10T13:13:51;96579.97;;;15.51;56.72
79242;BME280;68670;48.720;9.118;2023-05-10T13:16:17;96573.28;;;15.67;54.61
79242;BME280;68670;48.720;9.118;2023-05-10T13:18:42;96569.97;;;15.65;56.69
79242;BME280;68670;48.720;9.118;2023-05-10T13:21:07;96587.09;;;15.62;54.25
79242;BME280;68670;48.720;9.118;2023-05-10T13:23:35;96581.03;;;15.65;54.16
79242;BME280;68670;48.720;9.118;2023-05-10T13:26:00;96577.50;;;15.49;53.15
79242;BME280;68670;48.720;9.118;2023-05-10T13:28:28;96575.28;;;15.56;54.54
79242;BME280;68670;48.720;9.118;2023-05-10T13:30:54;96581.34;;;15.58;54.46
79242;BME280;68670;48.720;9.118;2023-05-10T13:33:19;96578.03;;;15.56;56.73
79242;BME280;68670;48.720;9.118;2023-05-10T13:35:45;96574.75;;;15.44;54.20